Terminal Aerodrome Forecast
Issued by NWS

Home | Current Version | Previous Version | Text Only | Print | Product List | Glossary On
Versions: 1 2 3 4 5 6 7 8 9 10 11 12 13 14 15
000
FTUS45 KGGW 011700
TAFSDY
TAF
KSDY 011733Z 0118/0218 19005KT P6SM SKC
     FM020100 17003KT P6SM FEW150 SCT200
     FM020800 00000KT P6SM BKN120
     FM021300 35004KT P6SM VCSH SCT040 OVC060
     FM021600 35009KT 3SM -SN BR OVC013
      AMD LTD TO CLD VIS AND WIND=

USA.gov is the U.S. government's official web portal to all federal, state and local government web resources and services.